sensor_id;sensor_type;location;lat;lon;timestamp;pressure;altitude;pressure_sealevel;temperature;humidity
16355;BME280;8287;51.644;8.494;2023-08-17T00:01:59;100614.78;;;21.27;100.00
16355;BME280;8287;51.644;8.494;2023-08-17T00:04:26;100616.28;;;21.25;100.00
16355;BME280;8287;51.644;8.494;2023-08-17T00:06:53;100618.97;;;21.25;100.00
16355;BME280;8287;51.644;8.494;2023-08-17T00:09:19;100619.41;;;21.30;100.00
16355;BME280;8287;51.644;8.494;2023-08-17T00:11:47;100620.81;;;21.17;100.00
16355;BME280;8287;51.644;8.494;2023-08-17T00:14:14;100621.66;;;21.25;100.00
16355;BME280;8287;51.644;8.494;2023-08-17T00:16:40;100623.13;;;21.19;100.00
16355;BME280;8287;51.644;8.494;2023-08-17T00:19:09;100623.25;;;21.29;99.83
16355;BME280;8287;51.644;8.494;2023-08-17T00:21:35;100620.97;;;21.31;99.90
16355;BME280;8287;51.644;8.494;2023-08-17T00:24:03;100617.88;;;21.29;100.00
16355;BME280;8287;51.644;8.494;2023-08-17T00:26:30;100627.88;;;21.29;100.00
16355;BME280;8287;51.644;8.494;2023-08-17T00:28:57;100621.72;;;21.28;100.00
16355;BME280;8287;51.644;8.494;2023-08-17T00:31:24;100622.13;;;21.30;100.00
16355;BME280;8287;51.644;8.494;2023-08-17T00:33:50;100631.44;;;21.36;99.17
16355;BME280;8287;51.644;8.494;2023-08-17T00:36:18;100634.13;;;21.36;98.72
16355;BME280;8287;51.644;8.494;2023-08-17T00:38:45;100635.63;;;21.01;99.75
16355;BME280;8287;51.644;8.494;2023-08-17T00:41:12;100642.66;;;20.83;100.00
16355;BME280;8287;51.644;8.494;2023-08-17T00:43:38;100635.47;;;20.64;100.00
16355;BME280;8287;51.644;8.494;2023-08-17T00:46:05;100645.19;;;20.72;100.00
16355;BME280;8287;51.644;8.494;2023-08-17T00:48:33;100642.84;;;20.93;100.00
16355;BME280;8287;51.644;8.494;2023-08-17T00:51:00;100643.09;;;21.14;100.00
16355;BME280;8287;51.644;8.494;2023-08-17T00:53:29;100646.34;;;21.27;98.78
16355;BME280;8287;51.644;8.494;2023-08-17T00:55:57;100647.06;;;21.24;98.96
16355;BME280;8287;51.644;8.494;2023-08-17T00:58:25;100641.38;;;21.29;98.13
16355;BME280;8287;51.644;8.494;2023-08-17T01:00:52;100648.66;;;21.28;98.52
16355;BME280;8287;51.644;8.494;2023-08-17T01:03:20;100644.88;;;21.33;98.25
16355;BME280;8287;51.644;8.494;2023-08-17T01:05:48;100649.50;;;21.36;98.03
16355;BME280;8287;51.644;8.494;2023-08-17T01:08:15;100652.22;;;21.36;97.79
16355;BME280;8287;51.644;8.494;2023-08-17T01:10:49;100648.72;;;21.32;98.31
16355;BME280;8287;51.644;8.494;2023-08-17T01:13:23;100656.16;;;21.12;98.70
16355;BME280;8287;51.644;8.494;2023-08-17T01:15:54;100651.47;;;21.06;99.48
16355;BME280;8287;51.644;8.494;2023-08-17T01:18:24;100654.31;;;20.90;100.00
16355;BME280;8287;51.644;8.494;2023-08-17T01:20:53;100648.97;;;20.68;100.00
16355;BME280;8287;51.644;8.494;2023-08-17T01:23:21;100643.97;;;20.66;100.00
16355;BME280;8287;51.644;8.494;2023-08-17T01:25:49;100651.72;;;20.45;100.00
16355;BME280;8287;51.644;8.494;2023-08-17T01:28:15;100652.88;;;20.44;100.00
16355;BME280;8287;51.644;8.494;2023-08-17T01:30:47;100650.53;;;20.69;100.00
16355;BME280;8287;51.644;8.494;2023-08-17T01:33:22;100653.03;;;20.81;100.00
16355;BME280;8287;51.644;8.494;2023-08-17T01:35:57;100654.31;;;20.87;100.00
16355;BME280;8287;51.644;8.494;2023-08-17T01:38:29;100658.31;;;21.00;99.84
16355;BME280;8287;51.644;8.494;2023-08-17T01:40:56;100654.63;;;20.85;100.00
16355;BME280;8287;51.644;8.494;2023-08-17T01:43:25;100655.47;;;20.63;100.00
16355;BME280;8287;51.644;8.494;2023-08-17T01:45:52;100654.88;;;20.77;100.00
16355;BME280;8287;51.644;8.494;2023-08-17T01:48:19;100658.31;;;20.74;99.83
16355;BME280;8287;51.644;8.494;2023-08-17T01:50:45;100647.66;;;20.55;100.00
16355;BME280;8287;51.644;8.494;2023-08-17T01:53:12;100656.19;;;20.35;100.00
16355;BME280;8287;51.644;8.494;2023-08-17T01:55:40;100652.34;;;20.36;100.00
16355;BME280;8287;51.644;8.494;2023-08-17T01:58:07;100657.63;;;20.54;100.00
16355;BME280;8287;51.644;8.494;2023-08-17T02:00:34;100647.78;;;20.39;100.00
16355;BME280;8287;51.644;8.494;2023-08-17T02:03:01;100650.31;;;20.07;100.00
16355;BME280;8287;51.644;8.494;2023-08-17T02:05:27;100652.31;;;20.10;100.00
16355;BME280;8287;51.644;8.494;2023-08-17T02:07:54;100653.50;;;19.93;100.00
16355;BME280;8287;51.644;8.494;2023-08-17T02:10:21;100649.75;;;19.98;100.00
16355;BME280;8287;51.644;8.494;2023-08-17T02:12:49;100653.72;;;20.04;100.00
16355;BME280;8287;51.644;8.494;2023-08-17T02:15:16;100654.97;;;19.87;100.00
16355;BME280;8287;51.644;8.494;2023-08-17T02:17:42;100651.47;;;20.06;100.00
16355;BME280;8287;51.644;8.494;2023-08-17T02:20:10;100649.53;;;19.84;100.00
16355;BME280;8287;51.644;8.494;2023-08-17T02:22:36;100649.94;;;19.86;100.00
16355;BME280;8287;51.644;8.494;2023-08-17T02:25:04;100653.28;;;19.79;100.00
16355;BME280;8287;51.644;8.494;2023-08-17T02:27:31;100659.97;;;20.08;100.00
16355;BME280;8287;51.644;8.494;2023-08-17T02:29:59;100654.84;;;20.03;100.00
16355;BME280;8287;51.644;8.494;2023-08-17T02:32:26;100652.06;;;19.77;100.00
16355;BME280;8287;51.644;8.494;2023-08-17T02:34:52;100649.47;;;19.80;100.00
16355;BME280;8287;51.644;8.494;2023-08-17T02:37:19;100662.50;;;19.78;100.00
16355;BME280;8287;51.644;8.494;2023-08-17T02:39:45;100646.03;;;19.83;100.00
16355;BME280;8287;51.644;8.494;2023-08-17T02:42:12;100646.03;;;19.61;100.00
16355;BME280;8287;51.644;8.494;2023-08-17T02:44:39;100639.16;;;19.44;100.00
16355;BME280;8287;51.644;8.494;2023-08-17T02:47:07;100639.03;;;19.79;100.00
16355;BME280;8287;51.644;8.494;2023-08-17T02:49:33;100635.41;;;19.68;100.00
16355;BME280;8287;51.644;8.494;2023-08-17T02:52:00;100639.84;;;19.60;100.00
16355;BME280;8287;51.644;8.494;2023-08-17T02:54:27;100644.75;;;19.55;100.00
16355;BME280;8287;51.644;8.494;2023-08-17T02:56:54;100642.91;;;19.40;100.00
16355;BME280;8287;51.644;8.494;2023-08-17T02:59:20;100644.84;;;19.20;100.00
16355;BME280;8287;51.644;8.494;2023-08-17T03:01:47;100642.16;;;19.39;100.00
16355;BME280;8287;51.644;8.494;2023-08-17T03:04:15;100645.06;;;19.50;100.00
16355;BME280;8287;51.644;8.494;2023-08-17T03:06:41;100644.75;;;19.55;100.00
16355;BME280;8287;51.644;8.494;2023-08-17T03:09:08;100645.38;;;19.67;100.00
16355;BME280;8287;51.644;8.494;2023-08-17T03:11:36;100637.97;;;19.83;100.00
16355;BME280;8287;51.644;8.494;2023-08-17T03:14:03;100640.69;;;20.06;100.00
16355;BME280;8287;51.644;8.494;2023-08-17T03:16:29;100644.94;;;20.07;100.00
16355;BME280;8287;51.644;8.494;2023-08-17T03:18:56;100640.09;;;20.16;100.00
16355;BME280;8287;51.644;8.494;2023-08-17T03:21:24;100651.47;;;19.87;100.00
16355;BME280;8287;51.644;8.494;2023-08-17T03:23:52;100642.47;;;19.98;100.00
16355;BME280;8287;51.644;8.494;2023-08-17T03:26:18;100645.47;;;20.16;100.00
16355;BME280;8287;51.644;8.494;2023-08-17T03:28:45;100636.81;;;20.26;100.00
16355;BME280;8287;51.644;8.494;2023-08-17T03:31:12;100633.44;;;20.32;100.00
16355;BME280;8287;51.644;8.494;2023-08-17T03:33:38;100615.81;;;20.35;100.00
16355;BME280;8287;51.644;8.494;2023-08-17T03:36:06;100618.50;;;20.35;100.00
16355;BME280;8287;51.644;8.494;2023-08-17T03:38:34;100617.34;;;20.36;100.00
16355;BME280;8287;51.644;8.494;2023-08-17T03:41:01;100618.69;;;20.23;100.00
16355;BME280;8287;51.644;8.494;2023-08-17T03:43:29;100614.84;;;20.24;100.00
16355;BME280;8287;51.644;8.494;2023-08-17T03:45:56;100610.31;;;20.28;100.00
16355;BME280;8287;51.644;8.494;2023-08-17T03:48:22;100613.72;;;20.25;100.00
16355;BME280;8287;51.644;8.494;2023-08-17T03:50:51;100605.69;;;20.28;100.00
16355;BME280;8287;51.644;8.494;2023-08-17T03:53:18;100609.16;;;20.29;100.00
16355;BME280;8287;51.644;8.494;2023-08-17T03:55:46;100615.69;;;20.28;100.00
16355;BME280;8287;51.644;8.494;2023-08-17T03:58:13;100619.16;;;20.28;100.00
16355;BME280;8287;51.644;8.494;2023-08-17T04:00:40;100621.91;;;20.32;100.00
16355;BME280;8287;51.644;8.494;2023-08-17T04:03:07;100622.38;;;20.37;100.00
16355;BME280;8287;51.644;8.494;2023-08-17T04:05:34;100609.47;;;20.24;100.00
16355;BME280;8287;51.644;8.494;2023-08-17T04:08:01;100602.19;;;20.24;100.00
16355;BME280;8287;51.644;8.494;2023-08-17T04:10:28;100609.53;;;20.05;100.00
16355;BME280;8287;51.644;8.494;2023-08-17T04:12:56;100606.78;;;20.01;100.00
16355;BME280;8287;51.644;8.494;2023-08-17T04:15:22;100607.16;;;20.00;100.00
16355;BME280;8287;51.644;8.494;2023-08-17T04:17:49;100605.16;;;19.97;100.00
16355;BME280;8287;51.644;8.494;2023-08-17T04:20:16;100603.88;;;20.10;100.00
16355;BME280;8287;51.644;8.494;2023-08-17T04:22:43;100607.50;;;20.21;100.00
16355;BME280;8287;51.644;8.494;2023-08-17T04:25:10;100613.34;;;20.26;100.00
16355;BME280;8287;51.644;8.494;2023-08-17T04:27:36;100611.50;;;20.30;100.00
16355;BME280;8287;51.644;8.494;2023-08-17T04:30:06;100603.06;;;20.32;100.00
16355;BME280;8287;51.644;8.494;2023-08-17T04:32:33;100599.25;;;20.33;100.00
16355;BME280;8287;51.644;8.494;2023-08-17T04:34:59;100609.69;;;20.38;100.00
16355;BME280;8287;51.644;8.494;2023-08-17T04:37:26;100604.75;;;20.43;100.00
16355;BME280;8287;51.644;8.494;2023-08-17T04:39:53;100622.22;;;20.52;98.81
16355;BME280;8287;51.644;8.494;2023-08-17T04:42:20;100617.25;;;20.29;99.51
16355;BME280;8287;51.644;8.494;2023-08-17T04:44:46;100627.63;;;20.04;100.00
16355;BME280;8287;51.644;8.494;2023-08-17T04:47:14;100623.97;;;19.74;100.00
16355;BME280;8287;51.644;8.494;2023-08-17T04:49:41;100624.41;;;19.99;100.00
16355;BME280;8287;51.644;8.494;2023-08-17T04:52:08;100625.16;;;20.18;100.00
16355;BME280;8287;51.644;8.494;2023-08-17T04:54:34;100641.16;;;20.34;100.00
16355;BME280;8287;51.644;8.494;2023-08-17T04:57:01;100636.19;;;20.36;100.00
16355;BME280;8287;51.644;8.494;2023-08-17T04:59:30;100635.75;;;19.89;100.00
16355;BME280;8287;51.644;8.494;2023-08-17T05:01:57;100636.16;;;19.68;100.00
16355;BME280;8287;51.644;8.494;2023-08-17T05:04:25;100642.03;;;19.74;100.00
16355;BME280;8287;51.644;8.494;2023-08-17T05:06:52;100633.91;;;19.70;100.00
16355;BME280;8287;51.644;8.494;2023-08-17T05:09:18;100632.31;;;19.47;100.00
16355;BME280;8287;51.644;8.494;2023-08-17T05:11:45;100635.44;;;19.49;100.00
16355;BME280;8287;51.644;8.494;2023-08-17T05:14:12;100624.44;;;19.00;100.00
16355;BME280;8287;51.644;8.494;2023-08-17T05:16:39;100637.81;;;18.62;100.00
16355;BME280;8287;51.644;8.494;2023-08-17T05:19:06;100632.72;;;18.76;100.00
16355;BME280;8287;51.644;8.494;2023-08-17T05:21:35;100640.56;;;19.19;100.00
16355;BME280;8287;51.644;8.494;2023-08-17T05:24:02;100639.53;;;19.43;100.00
16355;BME280;8287;51.644;8.494;2023-08-17T05:26:28;100646.84;;;19.65;100.00
16355;BME280;8287;51.644;8.494;2023-08-17T05:28:55;100637.00;;;19.72;100.00
16355;BME280;8287;51.644;8.494;2023-08-17T05:31:22;100641.38;;;19.58;100.00
16355;BME280;8287;51.644;8.494;2023-08-17T05:33:48;100640.09;;;19.52;100.00
16355;BME280;8287;51.644;8.494;2023-08-17T05:36:15;100646.78;;;19.61;100.00
16355;BME280;8287;51.644;8.494;2023-08-17T05:38:43;100647.84;;;19.76;100.00
16355;BME280;8287;51.644;8.494;2023-08-17T05:41:10;100659.34;;;19.76;100.00
16355;BME280;8287;51.644;8.494;2023-08-17T05:43:37;100649.97;;;19.67;100.00
16355;BME280;8287;51.644;8.494;2023-08-17T05:46:03;100657.94;;;19.82;100.00
16355;BME280;8287;51.644;8.494;2023-08-17T05:48:30;100657.53;;;19.61;100.00
16355;BME280;8287;51.644;8.494;2023-08-17T05:50:57;100657.66;;;19.68;100.00
16355;BME280;8287;51.644;8.494;2023-08-17T05:53:23;100653.03;;;19.88;100.00
16355;BME280;8287;51.644;8.494;2023-08-17T05:55:51;100657.88;;;20.01;100.00
16355;BME280;8287;51.644;8.494;2023-08-17T05:58:18;100651.84;;;20.04;100.00
16355;BME280;8287;51.644;8.494;2023-08-17T06:00:45;100665.88;;;19.98;100.00
16355;BME280;8287;51.644;8.494;2023-08-17T06:03:12;100659.91;;;19.85;100.00
16355;BME280;8287;51.644;8.494;2023-08-17T06:05:39;100658.72;;;19.83;100.00
16355;BME280;8287;51.644;8.494;2023-08-17T06:08:06;100662.59;;;20.04;100.00
16355;BME280;8287;51.644;8.494;2023-08-17T06:10:32;100661.63;;;20.16;100.00
16355;BME280;8287;51.644;8.494;2023-08-17T06:13:00;100665.50;;;20.18;100.00
16355;BME280;8287;51.644;8.494;2023-08-17T06:15:27;100668.66;;;20.24;100.00
16355;BME280;8287;51.644;8.494;2023-08-17T06:17:54;100670.53;;;20.20;100.00
16355;BME280;8287;51.644;8.494;2023-08-17T06:20:20;100669.09;;;20.26;100.00
16355;BME280;8287;51.644;8.494;2023-08-17T06:22:47;100659.09;;;20.26;100.00
16355;BME280;8287;51.644;8.494;2023-08-17T06:25:15;100663.84;;;20.33;100.00
16355;BME280;8287;51.644;8.494;2023-08-17T06:27:42;100671.19;;;20.36;100.00
16355;BME280;8287;51.644;8.494;2023-08-17T06:30:11;100670.13;;;20.18;100.00
16355;BME280;8287;51.644;8.494;2023-08-17T06:32:38;100672.81;;;20.18;100.00
16355;BME280;8287;51.644;8.494;2023-08-17T06:35:06;100675.19;;;20.23;100.00
16355;BME280;8287;51.644;8.494;2023-08-17T06:37:33;100672.63;;;20.30;100.00
16355;BME280;8287;51.644;8.494;2023-08-17T06:39:59;100678.72;;;20.27;100.00
16355;BME280;8287;51.644;8.494;2023-08-17T06:42:26;100670.19;;;20.21;100.00
16355;BME280;8287;51.644;8.494;2023-08-17T06:44:53;100668.03;;;20.08;100.00
16355;BME280;8287;51.644;8.494;2023-08-17T06:47:21;100665.38;;;20.11;100.00
16355;BME280;8287;51.644;8.494;2023-08-17T06:49:47;100669.06;;;20.22;100.00
16355;BME280;8287;51.644;8.494;2023-08-17T06:52:14;100662.69;;;20.11;100.00
16355;BME280;8287;51.644;8.494;2023-08-17T06:54:40;100658.34;;;20.26;100.00
16355;BME280;8287;51.644;8.494;2023-08-17T06:57:07;100671.13;;;20.10;100.00
16355;BME280;8287;51.644;8.494;2023-08-17T06:59:34;100661.78;;;20.26;100.00
16355;BME280;8287;51.644;8.494;2023-08-17T07:02:00;100664.25;;;20.35;100.00
16355;BME280;8287;51.644;8.494;2023-08-17T07:04:29;100670.06;;;20.37;100.00
16355;BME280;8287;51.644;8.494;2023-08-17T07:06:55;100677.84;;;20.42;100.00
16355;BME280;8287;51.644;8.494;2023-08-17T07:09:22;100678.06;;;20.33;100.00
16355;BME280;8287;51.644;8.494;2023-08-17T07:11:49;100675.78;;;20.35;100.00
16355;BME280;8287;51.644;8.494;2023-08-17T07:14:16;100673.22;;;20.20;100.00
16355;BME280;8287;51.644;8.494;2023-08-17T07:16:42;100678.91;;;20.15;100.00
16355;BME280;8287;51.644;8.494;2023-08-17T07:19:09;100671.25;;;20.17;100.00
16355;BME280;8287;51.644;8.494;2023-08-17T07:21:38;100669.81;;;20.23;100.00
16355;BME280;8287;51.644;8.494;2023-08-17T07:24:12;100671.75;;;20.22;100.00
16355;BME280;8287;51.644;8.494;2023-08-17T07:26:39;100667.72;;;20.35;100.00
16355;BME280;8287;51.644;8.494;2023-08-17T07:29:06;100669.56;;;20.31;100.00
16355;BME280;8287;51.644;8.494;2023-08-17T07:31:33;100661.91;;;20.33;100.00
16355;BME280;8287;51.644;8.494;2023-08-17T07:34:03;100678.25;;;20.43;100.00
16355;BME280;8287;51.644;8.494;2023-08-17T07:36:29;100685.41;;;20.58;100.00
16355;BME280;8287;51.644;8.494;2023-08-17T07:38:57;100694.97;;;20.56;100.00
16355;BME280;8287;51.644;8.494;2023-08-17T07:41:24;100700.22;;;20.71;100.00
16355;BME280;8287;51.644;8.494;2023-08-17T07:43:51;100700.38;;;20.82;100.00
16355;BME280;8287;51.644;8.494;2023-08-17T07:46:18;100694.34;;;20.88;100.00
16355;BME280;8287;51.644;8.494;2023-08-17T07:48:44;100697.31;;;20.83;100.00
16355;BME280;8287;51.644;8.494;2023-08-17T07:51:11;100698.03;;;20.80;100.00
16355;BME280;8287;51.644;8.494;2023-08-17T07:53:38;100690.53;;;20.67;100.00
16355;BME280;8287;51.644;8.494;2023-08-17T07:56:06;100690.34;;;20.82;100.00
16355;BME280;8287;51.644;8.494;2023-08-17T07:58:33;100699.81;;;20.95;100.00
16355;BME280;8287;51.644;8.494;2023-08-17T08:01:00;100698.31;;;20.98;100.00
16355;BME280;8287;51.644;8.494;2023-08-17T08:03:27;100691.84;;;21.02;100.00
16355;BME280;8287;51.644;8.494;2023-08-17T08:05:53;100696.94;;;21.11;100.00
16355;BME280;8287;51.644;8.494;2023-08-17T08:08:20;100698.03;;;21.06;100.00
16355;BME280;8287;51.644;8.494;2023-08-17T08:10:47;100697.78;;;21.15;100.00
16355;BME280;8287;51.644;8.494;2023-08-17T08:13:15;100705.41;;;21.09;100.00
16355;BME280;8287;51.644;8.494;2023-08-17T08:15:41;100711.56;;;21.10;100.00
16355;BME280;8287;51.644;8.494;2023-08-17T08:18:08;100710.34;;;21.04;100.00
16355;BME280;8287;51.644;8.494;2023-08-17T08:20:35;100706.97;;;21.10;100.00
16355;BME280;8287;51.644;8.494;2023-08-17T08:23:01;100708.22;;;21.16;100.00
16355;BME280;8287;51.644;8.494;2023-08-17T08:25:28;100702.59;;;21.28;100.00
16355;BME280;8287;51.644;8.494;2023-08-17T08:27:55;100710.66;;;21.28;100.00
16355;BME280;8287;51.644;8.494;2023-08-17T08:30:23;100709.22;;;21.34;100.00
16355;BME280;8287;51.644;8.494;2023-08-17T08:32:50;100702.78;;;21.13;100.00
16355;BME280;8287;51.644;8.494;2023-08-17T08:35:16;100705.38;;;21.06;100.00
16355;BME280;8287;51.644;8.494;2023-08-17T08:37:43;100704.69;;;21.12;100.00
16355;BME280;8287;51.644;8.494;2023-08-17T08:40:11;100690.19;;;21.24;100.00
16355;BME280;8287;51.644;8.494;2023-08-17T08:42:39;100705.03;;;21.40;100.00
16355;BME280;8287;51.644;8.494;2023-08-17T08:45:06;100708.38;;;21.30;100.00
16355;BME280;8287;51.644;8.494;2023-08-17T08:47:36;100703.97;;;21.48;100.00
16355;BME280;8287;51.644;8.494;2023-08-17T08:50:04;100697.69;;;21.37;100.00
16355;BME280;8287;51.644;8.494;2023-08-17T08:52:34;100705.69;;;21.30;100.00
16355;BME280;8287;51.644;8.494;2023-08-17T08:55:07;100705.59;;;20.71;100.00
16355;BME280;8287;51.644;8.494;2023-08-17T08:57:37;100711.13;;;21.04;100.00
16355;BME280;8287;51.644;8.494;2023-08-17T09:00:06;100712.50;;;20.95;100.00
16355;BME280;8287;51.644;8.494;2023-08-17T09:02:34;100706.97;;;20.84;100.00
16355;BME280;8287;51.644;8.494;2023-08-17T09:05:01;100710.97;;;21.23;100.00
16355;BME280;8287;51.644;8.494;2023-08-17T09:07:29;100707.78;;;21.44;100.00
16355;BME280;8287;51.644;8.494;2023-08-17T09:09:56;100703.25;;;21.51;100.00
16355;BME280;8287;51.644;8.494;2023-08-17T09:12:22;100702.44;;;21.47;100.00
16355;BME280;8287;51.644;8.494;2023-08-17T09:14:49;100704.59;;;21.35;100.00
16355;BME280;8287;51.644;8.494;2023-08-17T09:17:23;100703.78;;;21.31;100.00
16355;BME280;8287;51.644;8.494;2023-08-17T09:19:51;100710.16;;;21.49;100.00
16355;BME280;8287;51.644;8.494;2023-08-17T09:22:23;100702.91;;;21.56;100.00
16355;BME280;8287;51.644;8.494;2023-08-17T09:24:50;100701.78;;;21.57;100.00
16355;BME280;8287;51.644;8.494;2023-08-17T09:27:17;100696.41;;;21.61;100.00
16355;BME280;8287;51.644;8.494;2023-08-17T09:29:44;100696.88;;;21.66;100.00
16355;BME280;8287;51.644;8.494;2023-08-17T09:32:14;100699.22;;;21.68;99.88
16355;BME280;8287;51.644;8.494;2023-08-17T09:34:42;100702.38;;;21.73;99.46
16355;BME280;8287;51.644;8.494;2023-08-17T09:37:11;100700.53;;;21.48;98.56
16355;BME280;8287;51.644;8.494;2023-08-17T09:39:38;100706.75;;;21.55;99.61
16355;BME280;8287;51.644;8.494;2023-08-17T09:42:05;100702.19;;;21.59;99.59
16355;BME280;8287;51.644;8.494;2023-08-17T09:44:33;100706.13;;;21.65;99.30
16355;BME280;8287;51.644;8.494;2023-08-17T09:47:01;100702.81;;;21.79;98.97
16355;BME280;8287;51.644;8.494;2023-08-17T09:49:30;100703.19;;;21.77;98.64
16355;BME280;8287;51.644;8.494;2023-08-17T09:51:59;100705.50;;;21.75;98.44
16355;BME280;8287;51.644;8.494;2023-08-17T09:54:27;100703.59;;;21.79;98.28
16355;BME280;8287;51.644;8.494;2023-08-17T09:56:57;100697.53;;;21.56;99.74
16355;BME280;8287;51.644;8.494;2023-08-17T09:59:24;100701.19;;;21.41;100.00
16355;BME280;8287;51.644;8.494;2023-08-17T10:01:51;100690.25;;;21.27;100.00
16355;BME280;8287;51.644;8.494;2023-08-17T10:04:21;100688.13;;;21.43;100.00
16355;BME280;8287;51.644;8.494;2023-08-17T10:06:50;100692.97;;;21.60;100.00
16355;BME280;8287;51.644;8.494;2023-08-17T10:09:23;100696.56;;;21.71;100.00
16355;BME280;8287;51.644;8.494;2023-08-17T10:11:55;100696.25;;;21.76;100.00
16355;BME280;8287;51.644;8.494;2023-08-17T10:14:26;100696.25;;;21.76;100.00
16355;BME280;8287;51.644;8.494;2023-08-17T10:17:00;100696.66;;;21.78;100.00
16355;BME280;8287;51.644;8.494;2023-08-17T10:19:35;100700.53;;;21.81;100.00
16355;BME280;8287;51.644;8.494;2023-08-17T10:22:08;100692.44;;;21.81;99.72
16355;BME280;8287;51.644;8.494;2023-08-17T10:24:38;100687.06;;;21.81;100.00
16355;BME280;8287;51.644;8.494;2023-08-17T10:27:08;100686.31;;;21.84;99.32
16355;BME280;8287;51.644;8.494;2023-08-17T10:29:36;100687.88;;;21.88;99.58
16355;BME280;8287;51.644;8.494;2023-08-17T10:32:06;100694.06;;;21.89;99.68
16355;BME280;8287;51.644;8.494;2023-08-17T10:34:33;100695.50;;;21.17;100.00
16355;BME280;8287;51.644;8.494;2023-08-17T10:37:01;100692.44;;;20.89;100.00
16355;BME280;8287;51.644;8.494;2023-08-17T10:39:29;100689.38;;;21.20;100.00
16355;BME280;8287;51.644;8.494;2023-08-17T10:41:56;100692.25;;;21.34;100.00
16355;BME280;8287;51.644;8.494;2023-08-17T10:44:43;100691.59;;;21.14;100.00
16355;BME280;8287;51.644;8.494;2023-08-17T10:47:20;100696.34;;;21.21;100.00
16355;BME280;8287;51.644;8.494;2023-08-17T10:49:48;100701.38;;;21.55;100.00
16355;BME280;8287;51.644;8.494;2023-08-17T10:52:25;100694.31;;;21.77;100.00
16355;BME280;8287;51.644;8.494;2023-08-17T10:54:53;100697.16;;;21.91;100.00
16355;BME280;8287;51.644;8.494;2023-08-17T10:57:29;100700.38;;;22.03;100.00
16355;BME280;8287;51.644;8.494;2023-08-17T11:00:17;100704.31;;;22.09;99.72
16355;BME280;8287;51.644;8.494;2023-08-17T11:02:52;100702.44;;;22.17;99.17
16355;BME280;8287;51.644;8.494;2023-08-17T11:05:46;100704.84;;;22.25;98.33
16355;BME280;8287;51.644;8.494;2023-08-17T11:08:21;100712.84;;;22.15;98.72
16355;BME280;8287;51.644;8.494;2023-08-17T11:10:58;100725.28;;;22.26;97.45
16355;BME280;8287;51.644;8.494;2023-08-17T11:13:27;100715.91;;;22.13;98.92
16355;BME280;8287;51.644;8.494;2023-08-17T11:15:57;100719.47;;;22.24;98.98
16355;BME280;8287;51.644;8.494;2023-08-17T11:18:24;100721.84;;;22.29;98.10
16355;BME280;8287;51.644;8.494;2023-08-17T11:20:52;100728.03;;;22.33;98.45
16355;BME280;8287;51.644;8.494;2023-08-17T11:23:19;100728.34;;;22.25;97.18
16355;BME280;8287;51.644;8.494;2023-08-17T11:25:46;100719.81;;;22.19;100.00
16355;BME280;8287;51.644;8.494;2023-08-17T11:28:13;100721.09;;;22.36;98.35
16355;BME280;8287;51.644;8.494;2023-08-17T11:30:40;100718.50;;;22.43;97.70
16355;BME280;8287;51.644;8.494;2023-08-17T11:33:10;100720.47;;;22.49;97.22
16355;BME280;8287;51.644;8.494;2023-08-17T11:35:37;100710.44;;;22.46;97.09
16355;BME280;8287;51.644;8.494;2023-08-17T11:38:05;100725.06;;;22.05;98.42
16355;BME280;8287;51.644;8.494;2023-08-17T11:40:32;100714.53;;;22.33;98.55
16355;BME280;8287;51.644;8.494;2023-08-17T11:43:00;100720.28;;;22.28;98.57
16355;BME280;8287;51.644;8.494;2023-08-17T11:45:27;100705.69;;;22.36;99.35
16355;BME280;8287;51.644;8.494;2023-08-17T11:47:53;100701.53;;;22.42;99.09
16355;BME280;8287;51.644;8.494;2023-08-17T11:50:24;100700.88;;;22.56;97.77
16355;BME280;8287;51.644;8.494;2023-08-17T11:52:51;100703.25;;;22.24;98.29
16355;BME280;8287;51.644;8.494;2023-08-17T11:55:17;100691.59;;;22.53;97.91
16355;BME280;8287;51.644;8.494;2023-08-17T11:57:45;100691.69;;;22.71;96.15
16355;BME280;8287;51.644;8.494;2023-08-17T12:00:17;100697.06;;;22.64;97.01
16355;BME280;8287;51.644;8.494;2023-08-17T12:02:47;100700.28;;;22.36;97.55
16355;BME280;8287;51.644;8.494;2023-08-17T12:05:14;100707.03;;;21.76;100.00
16355;BME280;8287;51.644;8.494;2023-08-17T12:07:46;100704.75;;;21.78;99.55
16355;BME280;8287;51.644;8.494;2023-08-17T12:10:13;100706.03;;;21.58;100.00
16355;BME280;8287;51.644;8.494;2023-08-17T12:12:39;100697.00;;;22.13;100.00
16355;BME280;8287;51.644;8.494;2023-08-17T12:15:07;100692.16;;;22.33;98.55
16355;BME280;8287;51.644;8.494;2023-08-17T12:17:36;100693.16;;;22.58;98.43
16355;BME280;8287;51.644;8.494;2023-08-17T12:20:08;100694.84;;;22.76;97.94
16355;BME280;8287;51.644;8.494;2023-08-17T12:22:41;100685.78;;;22.51;98.21
16355;BME280;8287;51.644;8.494;2023-08-17T12:25:10;100688.03;;;22.46;100.00
16355;BME280;8287;51.644;8.494;2023-08-17T12:27:36;100684.69;;;22.59;99.10
16355;BME280;8287;51.644;8.494;2023-08-17T12:30:04;100676.56;;;23.20;97.35
16355;BME280;8287;51.644;8.494;2023-08-17T12:32:34;100673.63;;;23.53;96.58
16355;BME280;8287;51.644;8.494;2023-08-17T12:35:02;100682.03;;;23.34;94.87
16355;BME280;8287;51.644;8.494;2023-08-17T12:37:32;100685.72;;;23.02;96.42
16355;BME280;8287;51.644;8.494;2023-08-17T12:39:58;100685.56;;;23.42;96.00
16355;BME280;8287;51.644;8.494;2023-08-17T12:42:27;100680.97;;;23.60;94.31
16355;BME280;8287;51.644;8.494;2023-08-17T12:44:53;100686.44;;;23.81;93.22
16355;BME280;8287;51.644;8.494;2023-08-17T12:47:20;100691.44;;;23.75;92.02
16355;BME280;8287;51.644;8.494;2023-08-17T12:49:47;100686.03;;;23.75;93.84
16355;BME280;8287;51.644;8.494;2023-08-17T12:52:14;100682.63;;;23.96;92.40
16355;BME280;8287;51.644;8.494;2023-08-17T12:54:40;100681.09;;;24.33;89.97
16355;BME280;8287;51.644;8.494;2023-08-17T12:57:07;100683.03;;;24.46;90.60